sensor_id;sensor_type;location;lat;lon;timestamp;temperature;humidity
4556;DHT22;2290;48.674;9.018;2023-05-15T00:01:06;10.30;99.90
4556;DHT22;2290;48.674;9.018;2023-05-15T00:03:32;10.20;99.90
4556;DHT22;2290;48.674;9.018;2023-05-15T00:05:58;10.00;99.90
4556;DHT22;2290;48.674;9.018;2023-05-15T00:08:23;10.00;99.90
4556;DHT22;2290;48.674;9.018;2023-05-15T00:10:49;10.10;99.90
4556;DHT22;2290;48.674;9.018;2023-05-15T00:13:16;10.20;99.90
4556;DHT22;2290;48.674;9.018;2023-05-15T00:15:42;10.20;99.90
4556;DHT22;2290;48.674;9.018;2023-05-15T00:18:08;10.00;99.90
4556;DHT22;2290;48.674;9.018;2023-05-15T00:20:33;10.00;99.90
4556;DHT22;2290;48.674;9.018;2023-05-15T00:22:59;10.10;99.90
4556;DHT22;2290;48.674;9.018;2023-05-15T00:25:24;10.00;99.90
4556;DHT22;2290;48.674;9.018;2023-05-15T00:27:50;10.10;99.90
4556;DHT22;2290;48.674;9.018;2023-05-15T00:30:16;10.10;99.90
4556;DHT22;2290;48.674;9.018;2023-05-15T00:32:41;10.10;99.90
4556;DHT22;2290;48.674;9.018;2023-05-15T00:35:07;10.00;99.90
4556;DHT22;2290;48.674;9.018;2023-05-15T00:37:32;10.00;99.90
4556;DHT22;2290;48.674;9.018;2023-05-15T00:39:58;10.00;99.90
4556;DHT22;2290;48.674;9.018;2023-05-15T00:42:24;9.90;99.90
4556;DHT22;2290;48.674;9.018;2023-05-15T00:44:51;9.90;99.90
4556;DHT22;2290;48.674;9.018;2023-05-15T00:47:19;9.90;99.90
4556;DHT22;2290;48.674;9.018;2023-05-15T00:49:47;9.90;99.90
4556;DHT22;2290;48.674;9.018;2023-05-15T00:52:14;9.80;99.90
4556;DHT22;2290;48.674;9.018;2023-05-15T00:54:39;9.70;99.90
4556;DHT22;2290;48.674;9.018;2023-05-15T00:57:05;9.80;99.90
4556;DHT22;2290;48.674;9.018;2023-05-15T00:59:32;9.80;99.90
4556;DHT22;2290;48.674;9.018;2023-05-15T01:01:59;10.00;99.90
4556;DHT22;2290;48.674;9.018;2023-05-15T01:04:24;9.90;99.90
4556;DHT22;2290;48.674;9.018;2023-05-15T01:06:50;9.90;99.90
4556;DHT22;2290;48.674;9.018;2023-05-15T01:09:19;9.80;99.90
4556;DHT22;2290;48.674;9.018;2023-05-15T01:11:49;9.90;99.90
4556;DHT22;2290;48.674;9.018;2023-05-15T01:14:15;10.00;99.90
4556;DHT22;2290;48.674;9.018;2023-05-15T01:16:41;10.10;99.90
4556;DHT22;2290;48.674;9.018;2023-05-15T01:19:06;10.10;99.90
4556;DHT22;2290;48.674;9.018;2023-05-15T01:21:56;10.20;99.90
4556;DHT22;2290;48.674;9.018;2023-05-15T01:24:59;10.10;99.90
4556;DHT22;2290;48.674;9.018;2023-05-15T01:27:49;10.20;99.90
4556;DHT22;2290;48.674;9.018;2023-05-15T01:30:35;10.20;99.90
4556;DHT22;2290;48.674;9.018;2023-05-15T01:33:20;10.20;99.90
4556;DHT22;2290;48.674;9.018;2023-05-15T01:35:52;10.20;99.90
4556;DHT22;2290;48.674;9.018;2023-05-15T01:41:31;10.00;99.90
4556;DHT22;2290;48.674;9.018;2023-05-15T01:44:21;10.00;99.90
4556;DHT22;2290;48.674;9.018;2023-05-15T01:46:52;10.00;99.90
4556;DHT22;2290;48.674;9.018;2023-05-15T01:49:23;10.00;99.90
4556;DHT22;2290;48.674;9.018;2023-05-15T01:51:55;10.10;99.90
4556;DHT22;2290;48.674;9.018;2023-05-15T01:54:23;10.10;99.90
4556;DHT22;2290;48.674;9.018;2023-05-15T01:56:50;10.10;99.90
4556;DHT22;2290;48.674;9.018;2023-05-15T01:59:17;9.90;99.90
4556;DHT22;2290;48.674;9.018;2023-05-15T02:01:44;9.90;99.90
4556;DHT22;2290;48.674;9.018;2023-05-15T02:04:10;10.00;99.90
4556;DHT22;2290;48.674;9.018;2023-05-15T02:06:37;10.00;99.90
4556;DHT22;2290;48.674;9.018;2023-05-15T02:09:03;10.00;99.90
4556;DHT22;2290;48.674;9.018;2023-05-15T02:11:29;10.10;99.90
4556;DHT22;2290;48.674;9.018;2023-05-15T02:13:56;10.30;99.90
4556;DHT22;2290;48.674;9.018;2023-05-15T02:16:21;10.40;99.90
4556;DHT22;2290;48.674;9.018;2023-05-15T02:18:48;10.40;99.90
4556;DHT22;2290;48.674;9.018;2023-05-15T02:21:14;10.50;99.90
4556;DHT22;2290;48.674;9.018;2023-05-15T02:23:40;10.60;99.90
4556;DHT22;2290;48.674;9.018;2023-05-15T02:32:05;10.70;99.90
4556;DHT22;2290;48.674;9.018;2023-05-15T02:37:38;10.90;99.90
4556;DHT22;2290;48.674;9.018;2023-05-15T02:40:08;10.80;99.90
4556;DHT22;2290;48.674;9.018;2023-05-15T02:42:37;10.90;99.90
4556;DHT22;2290;48.674;9.018;2023-05-15T02:45:04;10.80;99.90
4556;DHT22;2290;48.674;9.018;2023-05-15T02:47:35;10.70;99.90
4556;DHT22;2290;48.674;9.018;2023-05-15T02:50:03;10.70;99.90
4556;DHT22;2290;48.674;9.018;2023-05-15T02:52:29;10.80;99.90
4556;DHT22;2290;48.674;9.018;2023-05-15T02:54:56;10.70;99.90
4556;DHT22;2290;48.674;9.018;2023-05-15T02:57:23;10.70;99.90
4556;DHT22;2290;48.674;9.018;2023-05-15T02:59:51;10.70;99.90
4556;DHT22;2290;48.674;9.018;2023-05-15T03:02:18;10.70;99.90
4556;DHT22;2290;48.674;9.018;2023-05-15T03:04:44;10.80;99.90
4556;DHT22;2290;48.674;9.018;2023-05-15T03:07:10;10.70;99.90
4556;DHT22;2290;48.674;9.018;2023-05-15T03:09:35;10.80;99.90
4556;DHT22;2290;48.674;9.018;2023-05-15T03:12:01;10.80;99.90
4556;DHT22;2290;48.674;9.018;2023-05-15T03:14:26;10.80;99.90
4556;DHT22;2290;48.674;9.018;2023-05-15T03:16:52;10.70;99.90
4556;DHT22;2290;48.674;9.018;2023-05-15T03:19:19;10.60;99.90
4556;DHT22;2290;48.674;9.018;2023-05-15T03:21:45;10.70;99.90
4556;DHT22;2290;48.674;9.018;2023-05-15T03:24:10;10.70;99.90
4556;DHT22;2290;48.674;9.018;2023-05-15T03:26:36;10.70;99.90
4556;DHT22;2290;48.674;9.018;2023-05-15T03:29:01;10.70;99.90
4556;DHT22;2290;48.674;9.018;2023-05-15T03:31:28;10.70;99.90
4556;DHT22;2290;48.674;9.018;2023-05-15T03:33:54;10.70;99.90
4556;DHT22;2290;48.674;9.018;2023-05-15T03:36:19;10.80;99.90
4556;DHT22;2290;48.674;9.018;2023-05-15T03:38:46;10.80;99.90
4556;DHT22;2290;48.674;9.018;2023-05-15T03:41:12;10.80;99.90
4556;DHT22;2290;48.674;9.018;2023-05-15T03:43:38;10.70;99.90
4556;DHT22;2290;48.674;9.018;2023-05-15T03:46:04;10.70;99.90
4556;DHT22;2290;48.674;9.018;2023-05-15T03:48:29;10.80;99.90
4556;DHT22;2290;48.674;9.018;2023-05-15T03:50:55;10.90;99.90
4556;DHT22;2290;48.674;9.018;2023-05-15T03:53:21;10.90;99.90
4556;DHT22;2290;48.674;9.018;2023-05-15T03:55:47;11.00;99.90
4556;DHT22;2290;48.674;9.018;2023-05-15T03:58:12;11.00;99.90
4556;DHT22;2290;48.674;9.018;2023-05-15T04:00:38;11.10;99.90
4556;DHT22;2290;48.674;9.018;2023-05-15T04:03:03;11.20;99.90
4556;DHT22;2290;48.674;9.018;2023-05-15T04:05:30;11.20;99.90
4556;DHT22;2290;48.674;9.018;2023-05-15T04:07:56;11.10;99.90
4556;DHT22;2290;48.674;9.018;2023-05-15T04:10:21;11.10;99.90
4556;DHT22;2290;48.674;9.018;2023-05-15T04:12:47;11.10;99.90
4556;DHT22;2290;48.674;9.018;2023-05-15T04:15:21;11.10;99.90
4556;DHT22;2290;48.674;9.018;2023-05-15T04:17:49;11.10;99.90
4556;DHT22;2290;48.674;9.018;2023-05-15T04:20:18;11.10;99.90
4556;DHT22;2290;48.674;9.018;2023-05-15T04:22:44;11.20;99.90
4556;DHT22;2290;48.674;9.018;2023-05-15T04:25:11;11.30;99.90
4556;DHT22;2290;48.674;9.018;2023-05-15T04:27:39;11.30;99.90
4556;DHT22;2290;48.674;9.018;2023-05-15T04:30:07;11.40;99.90
4556;DHT22;2290;48.674;9.018;2023-05-15T04:32:33;11.40;99.90
4556;DHT22;2290;48.674;9.018;2023-05-15T04:35:01;11.40;99.90
4556;DHT22;2290;48.674;9.018;2023-05-15T04:37:30;11.40;99.90
4556;DHT22;2290;48.674;9.018;2023-05-15T04:39:55;11.40;99.90
4556;DHT22;2290;48.674;9.018;2023-05-15T04:42:21;11.60;99.90
4556;DHT22;2290;48.674;9.018;2023-05-15T04:44:46;11.60;99.90
4556;DHT22;2290;48.674;9.018;2023-05-15T04:47:12;11.60;99.90
4556;DHT22;2290;48.674;9.018;2023-05-15T04:49:40;11.60;99.90
4556;DHT22;2290;48.674;9.018;2023-05-15T04:52:06;11.70;99.90
4556;DHT22;2290;48.674;9.018;2023-05-15T04:54:32;11.70;99.90
4556;DHT22;2290;48.674;9.018;2023-05-15T04:56:58;11.70;99.90
4556;DHT22;2290;48.674;9.018;2023-05-15T04:59:24;11.70;99.90
4556;DHT22;2290;48.674;9.018;2023-05-15T05:01:50;11.70;99.90
4556;DHT22;2290;48.674;9.018;2023-05-15T05:04:16;11.70;99.90
4556;DHT22;2290;48.674;9.018;2023-05-15T05:06:45;11.80;99.90
4556;DHT22;2290;48.674;9.018;2023-05-15T05:09:11;11.70;99.90
4556;DHT22;2290;48.674;9.018;2023-05-15T05:11:38;11.90;99.90
4556;DHT22;2290;48.674;9.018;2023-05-15T05:14:04;11.90;99.90
4556;DHT22;2290;48.674;9.018;2023-05-15T05:16:30;11.90;99.90
4556;DHT22;2290;48.674;9.018;2023-05-15T05:18:56;12.00;99.90
4556;DHT22;2290;48.674;9.018;2023-05-15T05:21:22;12.00;99.90
4556;DHT22;2290;48.674;9.018;2023-05-15T05:23:47;12.00;99.90
4556;DHT22;2290;48.674;9.018;2023-05-15T05:26:13;12.10;99.90
4556;DHT22;2290;48.674;9.018;2023-05-15T05:28:40;12.10;99.90
4556;DHT22;2290;48.674;9.018;2023-05-15T05:31:09;12.10;99.90
4556;DHT22;2290;48.674;9.018;2023-05-15T05:33:35;12.20;99.90
4556;DHT22;2290;48.674;9.018;2023-05-15T05:36:00;12.20;99.90
4556;DHT22;2290;48.674;9.018;2023-05-15T05:38:27;12.30;99.90
4556;DHT22;2290;48.674;9.018;2023-05-15T05:40:54;12.40;99.90
4556;DHT22;2290;48.674;9.018;2023-05-15T05:43:19;12.40;99.90
4556;DHT22;2290;48.674;9.018;2023-05-15T05:45:46;12.50;99.90
4556;DHT22;2290;48.674;9.018;2023-05-15T05:48:11;12.50;99.90
4556;DHT22;2290;48.674;9.018;2023-05-15T05:50:38;12.50;99.90
4556;DHT22;2290;48.674;9.018;2023-05-15T05:53:03;12.60;99.90
4556;DHT22;2290;48.674;9.018;2023-05-15T05:55:31;12.60;99.90
4556;DHT22;2290;48.674;9.018;2023-05-15T05:57:58;12.70;99.90
4556;DHT22;2290;48.674;9.018;2023-05-15T06:00:24;12.70;99.90
4556;DHT22;2290;48.674;9.018;2023-05-15T06:02:55;12.70;99.90
4556;DHT22;2290;48.674;9.018;2023-05-15T06:05:21;12.70;99.90
4556;DHT22;2290;48.674;9.018;2023-05-15T06:07:48;12.70;99.90
4556;DHT22;2290;48.674;9.018;2023-05-15T06:10:13;12.80;99.90
4556;DHT22;2290;48.674;9.018;2023-05-15T06:12:39;12.90;99.90
4556;DHT22;2290;48.674;9.018;2023-05-15T06:15:05;12.90;99.90
4556;DHT22;2290;48.674;9.018;2023-05-15T06:17:31;13.00;99.90
4556;DHT22;2290;48.674;9.018;2023-05-15T06:19:56;13.10;99.90
4556;DHT22;2290;48.674;9.018;2023-05-15T06:22:22;13.10;99.90
4556;DHT22;2290;48.674;9.018;2023-05-15T06:24:50;13.10;99.90
4556;DHT22;2290;48.674;9.018;2023-05-15T06:27:15;13.10;99.90
4556;DHT22;2290;48.674;9.018;2023-05-15T06:29:41;13.20;99.90
4556;DHT22;2290;48.674;9.018;2023-05-15T06:32:07;13.20;99.90
4556;DHT22;2290;48.674;9.018;2023-05-15T06:34:33;13.30;99.90
4556;DHT22;2290;48.674;9.018;2023-05-15T06:36:59;13.20;99.90
4556;DHT22;2290;48.674;9.018;2023-05-15T06:39:25;13.30;99.90
4556;DHT22;2290;48.674;9.018;2023-05-15T06:41:50;13.40;99.90
4556;DHT22;2290;48.674;9.018;2023-05-15T06:44:22;13.50;99.90
4556;DHT22;2290;48.674;9.018;2023-05-15T06:46:47;13.50;99.90
4556;DHT22;2290;48.674;9.018;2023-05-15T06:49:13;13.60;99.90
4556;DHT22;2290;48.674;9.018;2023-05-15T06:51:39;13.60;99.90
4556;DHT22;2290;48.674;9.018;2023-05-15T06:54:04;13.50;99.90
4556;DHT22;2290;48.674;9.018;2023-05-15T06:56:30;13.50;99.90
4556;DHT22;2290;48.674;9.018;2023-05-15T06:58:55;13.50;99.90
4556;DHT22;2290;48.674;9.018;2023-05-15T07:01:22;13.50;99.90
4556;DHT22;2290;48.674;9.018;2023-05-15T07:03:48;13.50;99.90
4556;DHT22;2290;48.674;9.018;2023-05-15T07:06:13;13.40;99.90
4556;DHT22;2290;48.674;9.018;2023-05-15T07:08:39;13.40;99.90
4556;DHT22;2290;48.674;9.018;2023-05-15T07:11:06;13.70;99.90
4556;DHT22;2290;48.674;9.018;2023-05-15T07:13:32;13.80;99.90
4556;DHT22;2290;48.674;9.018;2023-05-15T07:15:57;13.90;99.90
4556;DHT22;2290;48.674;9.018;2023-05-15T07:18:23;14.00;99.90
4556;DHT22;2290;48.674;9.018;2023-05-15T07:20:48;14.00;99.90
4556;DHT22;2290;48.674;9.018;2023-05-15T07:23:14;14.00;99.90
4556;DHT22;2290;48.674;9.018;2023-05-15T07:25:40;14.10;99.90
4556;DHT22;2290;48.674;9.018;2023-05-15T07:28:05;14.10;99.90
4556;DHT22;2290;48.674;9.018;2023-05-15T07:30:32;14.20;99.90
4556;DHT22;2290;48.674;9.018;2023-05-15T07:32:58;14.40;99.90
4556;DHT22;2290;48.674;9.018;2023-05-15T07:35:24;14.50;99.90
4556;DHT22;2290;48.674;9.018;2023-05-15T07:37:49;14.60;99.90
4556;DHT22;2290;48.674;9.018;2023-05-15T07:40:15;14.70;99.90
4556;DHT22;2290;48.674;9.018;2023-05-15T07:42:42;14.80;99.90
4556;DHT22;2290;48.674;9.018;2023-05-15T07:45:08;15.00;99.90
4556;DHT22;2290;48.674;9.018;2023-05-15T07:47:34;15.10;99.90
4556;DHT22;2290;48.674;9.018;2023-05-15T07:50:00;15.20;99.90
4556;DHT22;2290;48.674;9.018;2023-05-15T07:52:26;15.10;99.90
4556;DHT22;2290;48.674;9.018;2023-05-15T07:54:51;15.30;99.90
4556;DHT22;2290;48.674;9.018;2023-05-15T07:57:18;15.40;99.90
4556;DHT22;2290;48.674;9.018;2023-05-15T07:59:45;15.60;99.90
4556;DHT22;2290;48.674;9.018;2023-05-15T08:02:12;15.80;99.90
4556;DHT22;2290;48.674;9.018;2023-05-15T08:04:37;15.90;99.90
4556;DHT22;2290;48.674;9.018;2023-05-15T08:07:03;16.00;99.90
4556;DHT22;2290;48.674;9.018;2023-05-15T08:09:29;16.00;99.90
4556;DHT22;2290;48.674;9.018;2023-05-15T08:11:55;16.20;99.90
4556;DHT22;2290;48.674;9.018;2023-05-15T08:14:21;16.30;99.90
4556;DHT22;2290;48.674;9.018;2023-05-15T08:16:48;16.30;99.90
4556;DHT22;2290;48.674;9.018;2023-05-15T08:19:15;16.30;99.90
4556;DHT22;2290;48.674;9.018;2023-05-15T08:21:41;16.20;99.90
4556;DHT22;2290;48.674;9.018;2023-05-15T08:24:07;16.10;99.90
4556;DHT22;2290;48.674;9.018;2023-05-15T08:26:33;16.10;99.90
4556;DHT22;2290;48.674;9.018;2023-05-15T08:28:59;16.10;99.90
4556;DHT22;2290;48.674;9.018;2023-05-15T08:31:25;16.30;99.90
4556;DHT22;2290;48.674;9.018;2023-05-15T08:33:51;16.50;99.90
4556;DHT22;2290;48.674;9.018;2023-05-15T08:36:16;16.60;99.90
4556;DHT22;2290;48.674;9.018;2023-05-15T08:38:43;16.60;99.90
4556;DHT22;2290;48.674;9.018;2023-05-15T08:41:26;16.70;99.90
4556;DHT22;2290;48.674;9.018;2023-05-15T08:43:56;16.70;99.90
4556;DHT22;2290;48.674;9.018;2023-05-15T08:46:23;16.80;99.90
4556;DHT22;2290;48.674;9.018;2023-05-15T08:48:49;16.80;99.90
4556;DHT22;2290;48.674;9.018;2023-05-15T08:51:15;16.80;99.90
4556;DHT22;2290;48.674;9.018;2023-05-15T08:53:41;16.90;99.90
4556;DHT22;2290;48.674;9.018;2023-05-15T08:56:07;16.80;99.90
4556;DHT22;2290;48.674;9.018;2023-05-15T08:58:33;16.80;99.90
4556;DHT22;2290;48.674;9.018;2023-05-15T09:01:00;16.80;99.90
4556;DHT22;2290;48.674;9.018;2023-05-15T09:03:27;16.80;99.90
4556;DHT22;2290;48.674;9.018;2023-05-15T09:05:54;16.90;99.90
4556;DHT22;2290;48.674;9.018;2023-05-15T09:08:21;17.10;99.90
4556;DHT22;2290;48.674;9.018;2023-05-15T09:10:51;17.30;99.90
4556;DHT22;2290;48.674;9.018;2023-05-15T09:13:17;17.50;99.90
4556;DHT22;2290;48.674;9.018;2023-05-15T09:15:44;17.70;99.90
4556;DHT22;2290;48.674;9.018;2023-05-15T09:18:12;17.80;99.90
4556;DHT22;2290;48.674;9.018;2023-05-15T09:20:37;18.10;99.90
4556;DHT22;2290;48.674;9.018;2023-05-15T09:23:07;18.40;99.90
4556;DHT22;2290;48.674;9.018;2023-05-15T09:25:45;18.60;99.90
4556;DHT22;2290;48.674;9.018;2023-05-15T09:28:43;18.50;99.90
4556;DHT22;2290;48.674;9.018;2023-05-15T09:31:11;18.40;99.90
4556;DHT22;2290;48.674;9.018;2023-05-15T09:33:39;17.90;99.90
4556;DHT22;2290;48.674;9.018;2023-05-15T09:36:09;17.50;99.90
4556;DHT22;2290;48.674;9.018;2023-05-15T09:38:40;17.00;99.90
4556;DHT22;2290;48.674;9.018;2023-05-15T09:41:07;16.70;99.90
4556;DHT22;2290;48.674;9.018;2023-05-15T09:43:35;16.40;99.90
4556;DHT22;2290;48.674;9.018;2023-05-15T09:46:01;16.30;99.90
4556;DHT22;2290;48.674;9.018;2023-05-15T09:48:28;16.20;99.90
4556;DHT22;2290;48.674;9.018;2023-05-15T09:50:55;16.20;99.90
4556;DHT22;2290;48.674;9.018;2023-05-15T09:53:22;16.10;99.90
4556;DHT22;2290;48.674;9.018;2023-05-15T09:55:48;16.10;99.90
4556;DHT22;2290;48.674;9.018;2023-05-15T09:58:16;16.00;99.90
4556;DHT22;2290;48.674;9.018;2023-05-15T10:00:43;16.00;99.90
4556;DHT22;2290;48.674;9.018;2023-05-15T10:03:10;16.10;99.90
4556;DHT22;2290;48.674;9.018;2023-05-15T10:05:38;16.30;99.90
4556;DHT22;2290;48.674;9.018;2023-05-15T10:08:05;16.50;99.90
4556;DHT22;2290;48.674;9.018;2023-05-15T10:10:31;16.70;99.90
4556;DHT22;2290;48.674;9.018;2023-05-15T10:12:59;16.90;99.90
4556;DHT22;2290;48.674;9.018;2023-05-15T10:15:29;17.00;99.90
4556;DHT22;2290;48.674;9.018;2023-05-15T10:17:55;17.00;99.90
4556;DHT22;2290;48.674;9.018;2023-05-15T10:20:23;17.00;99.90
4556;DHT22;2290;48.674;9.018;2023-05-15T10:22:51;17.10;99.90
4556;DHT22;2290;48.674;9.018;2023-05-15T10:28:01;17.00;99.90
4556;DHT22;2290;48.674;9.018;2023-05-15T10:30:30;17.00;99.90
4556;DHT22;2290;48.674;9.018;2023-05-15T10:32:56;17.00;99.90
4556;DHT22;2290;48.674;9.018;2023-05-15T10:35:22;17.10;99.90
4556;DHT22;2290;48.674;9.018;2023-05-15T10:37:49;17.20;99.90
4556;DHT22;2290;48.674;9.018;2023-05-15T10:40:16;17.50;99.90
4556;DHT22;2290;48.674;9.018;2023-05-15T10:42:44;17.90;99.90
4556;DHT22;2290;48.674;9.018;2023-05-15T10:45:10;18.20;99.90
4556;DHT22;2290;48.674;9.018;2023-05-15T10:47:40;18.40;99.90
4556;DHT22;2290;48.674;9.018;2023-05-15T10:50:07;18.60;99.90
4556;DHT22;2290;48.674;9.018;2023-05-15T10:52:34;18.90;99.90
4556;DHT22;2290;48.674;9.018;2023-05-15T10:55:00;19.10;99.90
4556;DHT22;2290;48.674;9.018;2023-05-15T10:57:27;19.10;99.90
4556;DHT22;2290;48.674;9.018;2023-05-15T10:59:53;19.30;99.90
4556;DHT22;2290;48.674;9.018;2023-05-15T11:04:47;19.50;99.90
4556;DHT22;2290;48.674;9.018;2023-05-15T11:07:15;19.70;99.90
4556;DHT22;2290;48.674;9.018;2023-05-15T11:09:41;19.90;99.90
4556;DHT22;2290;48.674;9.018;2023-05-15T11:12:10;20.20;99.90
4556;DHT22;2290;48.674;9.018;2023-05-15T11:17:31;20.30;99.90
4556;DHT22;2290;48.674;9.018;2023-05-15T11:19:58;20.40;99.90
4556;DHT22;2290;48.674;9.018;2023-05-15T11:22:32;20.30;99.90
4556;DHT22;2290;48.674;9.018;2023-05-15T11:25:01;20.00;99.90
4556;DHT22;2290;48.674;9.018;2023-05-15T11:27:37;19.50;99.90
4556;DHT22;2290;48.674;9.018;2023-05-15T11:30:06;19.40;99.90
4556;DHT22;2290;48.674;9.018;2023-05-15T11:32:54;19.40;99.90
4556;DHT22;2290;48.674;9.018;2023-05-15T11:35:41;19.60;99.90
4556;DHT22;2290;48.674;9.018;2023-05-15T11:38:18;20.00;99.90
4556;DHT22;2290;48.674;9.018;2023-05-15T11:40:52;20.30;99.90
4556;DHT22;2290;48.674;9.018;2023-05-15T11:46:16;20.20;99.90
4556;DHT22;2290;48.674;9.018;2023-05-15T11:48:46;19.80;99.90
4556;DHT22;2290;48.674;9.018;2023-05-15T11:51:17;19.60;99.90
4556;DHT22;2290;48.674;9.018;2023-05-15T11:53:44;19.80;99.90
4556;DHT22;2290;48.674;9.018;2023-05-15T11:56:17;20.00;99.90
4556;DHT22;2290;48.674;9.018;2023-05-15T11:58:46;20.20;99.90
4556;DHT22;2290;48.674;9.018;2023-05-15T12:01:11;20.50;99.90
4556;DHT22;2290;48.674;9.018;2023-05-15T12:03:37;20.70;99.90
4556;DHT22;2290;48.674;9.018;2023-05-15T12:06:03;20.80;99.90
4556;DHT22;2290;48.674;9.018;2023-05-15T12:08:33;20.70;99.90
4556;DHT22;2290;48.674;9.018;2023-05-15T12:11:00;20.60;99.90
4556;DHT22;2290;48.674;9.018;2023-05-15T12:13:28;20.40;99.90
4556;DHT22;2290;48.674;9.018;2023-05-15T12:15:55;19.90;99.90
4556;DHT22;2290;48.674;9.018;2023-05-15T12:18:21;19.60;99.90
4556;DHT22;2290;48.674;9.018;2023-05-15T12:20:47;19.50;99.90
4556;DHT22;2290;48.674;9.018;2023-05-15T12:23:17;19.80;99.90
4556;DHT22;2290;48.674;9.018;2023-05-15T12:25:43;20.30;99.90
4556;DHT22;2290;48.674;9.018;2023-05-15T12:28:12;20.40;99.90
4556;DHT22;2290;48.674;9.018;2023-05-15T12:30:39;20.40;99.90
4556;DHT22;2290;48.674;9.018;2023-05-15T12:33:09;20.60;99.90
4556;DHT22;2290;48.674;9.018;2023-05-15T12:35:41;20.80;99.90
4556;DHT22;2290;48.674;9.018;2023-05-15T12:38:07;21.00;99.80
4556;DHT22;2290;48.674;9.018;2023-05-15T12:40:33;21.20;99.90
4556;DHT22;2290;48.674;9.018;2023-05-15T12:43:05;21.50;99.40
4556;DHT22;2290;48.674;9.018;2023-05-15T12:45:31;21.30;99.50
4556;DHT22;2290;48.674;9.018;2023-05-15T12:47:59;20.90;99.40
4556;DHT22;2290;48.674;9.018;2023-05-15T12:50:26;20.40;99.90
4556;DHT22;2290;48.674;9.018;2023-05-15T12:53:02;20.50;99.90
4556;DHT22;2290;48.674;9.018;2023-05-15T12:55:33;20.30;99.90
4556;DHT22;2290;48.674;9.018;2023-05-15T12:58:11;19.80;99.90
4556;DHT22;2290;48.674;9.018;2023-05-15T13:00:39;19.10;99.90
4556;DHT22;2290;48.674;9.018;2023-05-15T13:03:08;18.80;99.90
4556;DHT22;2290;48.674;9.018;2023-05-15T13:05:35;18.60;99.90
4556;DHT22;2290;48.674;9.018;2023-05-15T13:08:04;18.30;99.90
4556;DHT22;2290;48.674;9.018;2023-05-15T13:10:32;18.10;99.90
4556;DHT22;2290;48.674;9.018;2023-05-15T13:12:58;18.50;99.90
4556;DHT22;2290;48.674;9.018;2023-05-15T13:15:36;18.50;99.90
4556;DHT22;2290;48.674;9.018;2023-05-15T13:18:13;18.50;99.90
4556;DHT22;2290;48.674;9.018;2023-05-15T13:20:46;18.40;99.90
4556;DHT22;2290;48.674;9.018;2023-05-15T13:23:19;18.30;99.90
4556;DHT22;2290;48.674;9.018;2023-05-15T13:25:47;18.20;99.90
4556;DHT22;2290;48.674;9.018;2023-05-15T13:28:14;18.20;99.90
4556;DHT22;2290;48.674;9.018;2023-05-15T13:30:40;18.70;99.90
4556;DHT22;2290;48.674;9.018;2023-05-15T13:33:10;19.00;99.90
4556;DHT22;2290;48.674;9.018;2023-05-15T13:35:42;19.40;99.90
4556;DHT22;2290;48.674;9.018;2023-05-15T13:38:08;19.80;99.90
4556;DHT22;2290;48.674;9.018;2023-05-15T13:40:35;20.20;99.90
4556;DHT22;2290;48.674;9.018;2023-05-15T13:43:02;20.10;99.90
4556;DHT22;2290;48.674;9.018;2023-05-15T13:45:33;19.70;99.90
4556;DHT22;2290;48.674;9.018;2023-05-15T13:48:01;19.00;99.90
4556;DHT22;2290;48.674;9.018;2023-05-15T13:50:28;18.70;99.90
4556;DHT22;2290;48.674;9.018;2023-05-15T13:52:54;18.30;99.90
4556;DHT22;2290;48.674;9.018;2023-05-15T13:55:20;17.80;99.90
4556;DHT22;2290;48.674;9.018;2023-05-15T13:57:47;17.40;99.90
4556;DHT22;2290;48.674;9.018;2023-05-15T14:00:13;17.30;99.90
4556;DHT22;2290;48.674;9.018;2023-05-15T14:02:40;17.20;99.90
4556;DHT22;2290;48.674;9.018;2023-05-15T14:05:12;17.20;99.90
4556;DHT22;2290;48.674;9.018;2023-05-15T14:07:38;17.20;99.90
4556;DHT22;2290;48.674;9.018;2023-05-15T14:10:06;17.50;99.90
4556;DHT22;2290;48.674;9.018;2023-05-15T14:12:32;17.90;99.90
4556;DHT22;2290;48.674;9.018;2023-05-15T14:14:58;18.50;99.90
4556;DHT22;2290;48.674;9.018;2023-05-15T14:17:24;18.50;99.90
4556;DHT22;2290;48.674;9.018;2023-05-15T14:19:50;18.50;99.90
4556;DHT22;2290;48.674;9.018;2023-05-15T14:22:16;18.40;99.90
4556;DHT22;2290;48.674;9.018;2023-05-15T14:24:42;18.50;99.90
4556;DHT22;2290;48.674;9.018;2023-05-15T14:27:07;18.40;99.90
4556;DHT22;2290;48.674;9.018;2023-05-15T14:29:33;18.50;99.90
4556;DHT22;2290;48.674;9.018;2023-05-15T14:31:59;18.60;99.90
4556;DHT22;2290;48.674;9.018;2023-05-15T14:34:25;18.70;99.90
4556;DHT22;2290;48.674;9.018;2023-05-15T14:36:51;18.70;99.90
4556;DHT22;2290;48.674;9.018;2023-05-15T14:39:17;18.80;99.90
4556;DHT22;2290;48.674;9.018;2023-05-15T14:41:44;18.90;99.90
4556;DHT22;2290;48.674;9.018;2023-05-15T14:44:10;19.00;99.90
4556;DHT22;2290;48.674;9.018;2023-05-15T14:46:35;19.10;99.90
4556;DHT22;2290;48.674;9.018;2023-05-15T14:49:02;19.40;99.90
4556;DHT22;2290;48.674;9.018;2023-05-15T14:51:28;19.60;99.90
4556;DHT22;2290;48.674;9.018;2023-05-15T14:53:55;19.80;99.90
4556;DHT22;2290;48.674;9.018;2023-05-15T14:56:20;20.10;99.90
4556;DHT22;2290;48.674;9.018;2023-05-15T14:58:47;20.40;99.90
4556;DHT22;2290;48.674;9.018;2023-05-15T15:01:14;20.70;99.90
4556;DHT22;2290;48.674;9.018;2023-05-15T15:03:40;20.90;99.90
4556;DHT22;2290;48.674;9.018;2023-05-15T15:06:09;21.20;99.90
4556;DHT22;2290;48.674;9.018;2023-05-15T15:08:34;21.50;99.90
4556;DHT22;2290;48.674;9.018;2023-05-15T15:11:00;21.70;99.90
4556;DHT22;2290;48.674;9.018;2023-05-15T15:13:27;21.90;99.90
4556;DHT22;2290;48.674;9.018;2023-05-15T15:15:55;21.90;99.90
4556;DHT22;2290;48.674;9.018;2023-05-15T15:18:22;22.10;99.90
4556;DHT22;2290;48.674;9.018;2023-05-15T15:20:51;22.10;99.90
4556;DHT22;2290;48.674;9.018;2023-05-15T15:23:17;22.30;99.90
4556;DHT22;2290;48.674;9.018;2023-05-15T15:25:43;21.80;99.60
4556;DHT22;2290;48.674;9.018;2023-05-15T15:28:08;21.30;99.70
4556;DHT22;2290;48.674;9.018;2023-05-15T15:30:36;20.90;99.90
4556;DHT22;2290;48.674;9.018;2023-05-15T15:33:02;20.90;99.90
4556;DHT22;2290;48.674;9.018;2023-05-15T15:35:28;21.00;99.90
4556;DHT22;2290;48.674;9.018;2023-05-15T15:37:55;21.10;99.90
4556;DHT22;2290;48.674;9.018;2023-05-15T15:40:21;21.10;99.90
4556;DHT22;2290;48.674;9.018;2023-05-15T15:42:47;21.20;99.90
4556;DHT22;2290;48.674;9.018;2023-05-15T15:45:13;21.20;99.90
4556;DHT22;2290;48.674;9.018;2023-05-15T15:47:38;21.00;99.90
4556;DHT22;2290;48.674;9.018;2023-05-15T15:50:05;20.70;99.90
4556;DHT22;2290;48.674;9.018;2023-05-15T15:52:31;20.40;99.90
4556;DHT22;2290;48.674;9.018;2023-05-15T15:54:58;20.00;99.90
4556;DHT22;2290;48.674;9.018;2023-05-15T15:57:23;19.60;99.90
4556;DHT22;2290;48.674;9.018;2023-05-15T15:59:49;19.40;99.90
4556;DHT22;2290;48.674;9.018;2023-05-15T16:02:15;19.30;99.90
4556;DHT22;2290;48.674;9.018;2023-05-15T16:04:42;19.10;99.90
4556;DHT22;2290;48.674;9.018;2023-05-15T16:07:08;18.90;99.90
4556;DHT22;2290;48.674;9.018;2023-05-15T16:09:34;18.60;99.90
4556;DHT22;2290;48.674;9.018;2023-05-15T16:11:59;18.50;99.90
4556;DHT22;2290;48.674;9.018;2023-05-15T16:14:26;18.60;99.90
4556;DHT22;2290;48.674;9.018;2023-05-15T16:16:52;18.90;99.90
4556;DHT22;2290;48.674;9.018;2023-05-15T16:19:18;19.00;99.90
4556;DHT22;2290;48.674;9.018;2023-05-15T16:21:44;19.20;99.90
4556;DHT22;2290;48.674;9.018;2023-05-15T16:24:09;19.10;99.90
4556;DHT22;2290;48.674;9.018;2023-05-15T16:26:38;19.10;99.90